Time;durP1;ratioP1;P1;durP2;ratioP2;P2;SDS_P1;SDS_P2;PMS_P1;PMS_P2;Temp;Humidity;BMP_temperature;BMP_pressure;BME280_temperature;BME280_humidity;BME280_pressure;Samples;Min_cycle;Max_cycle;Signal;HPM_P1;HPM_P2
2021/11/29 00:01:52;;;;;;;;;;;;;;;0.18;100.00;94341.13;5093983;28;20022;-77
2021/11/29 00:04:19;;;;;;;;;;;;;;;0.19;100.00;94350.44;5098043;28;19969;-77
2021/11/29 00:06:44;;;;;;;;;;;;;;;0.12;100.00;94347.16;5097779;28;20032;-77
2021/11/29 00:09:10;;;;;;;;;;;;;;;0.13;100.00;94347.94;5098345;28;20391;-77
2021/11/29 00:11:36;;;;;;;;;;;;;;;0.17;100.00;94352.47;5079543;28;19969;-77
2021/11/29 00:14:01;;;;;;;;;;;;;;;0.16;100.00;94348.31;5097341;28;20409;-77
2021/11/29 00:16:26;;;;;;;;;;;;;;;0.19;100.00;94357.41;5097017;28;20280;-79
2021/11/29 00:18:52;;;;;;;;;;;;;;;0.14;100.00;94358.06;5096998;28;19924;-76
2021/11/29 00:21:18;;;;;;;;;;;;;;;0.10;100.00;94353.53;5097545;28;19924;-76
2021/11/29 00:23:45;;;;;;;;;;;;;;;0.09;100.00;94355.31;5079015;28;19963;-78
2021/11/29 00:26:14;;;;;;;;;;;;;;;0.16;100.00;94363.00;5097513;28;19993;-77
2021/11/29 00:28:39;;;;;;;;;;;;;;;0.14;100.00;94368.41;5099476;28;19928;-76
2021/11/29 00:31:07;;;;;;;;;;;;;;;0.14;100.00;94358.06;5097382;28;19993;-76
2021/11/29 00:33:35;;;;;;;;;;;;;;;0.15;100.00;94359.63;5097288;28;19924;-79
2021/11/29 00:36:03;;;;;;;;;;;;;;;0.08;100.00;94366.69;5097488;28;20022;-75
2021/11/29 00:38:30;;;;;;;;;;;;;;;0.11;100.00;94363.69;5097035;28;19928;-77
2021/11/29 00:40:55;;;;;;;;;;;;;;;0.17;100.00;94372.38;5097618;28;20392;-77
2021/11/29 00:43:21;;;;;;;;;;;;;;;0.20;100.00;94372.69;5079219;28;19931;-77
2021/11/29 00:45:48;;;;;;;;;;;;;;;0.19;100.00;94376.31;5096958;28;19924;-75
2021/11/29 00:48:17;;;;;;;;;;;;;;;0.14;99.91;94373.56;5096926;28;20332;-78
2021/11/29 00:50:42;;;;;;;;;;;;;;;0.20;99.46;94367.53;5096343;28;19928;-75
2021/11/29 00:53:09;;;;;;;;;;;;;;;0.17;98.67;94370.56;5096517;28;20026;-77
2021/11/29 00:55:37;;;;;;;;;;;;;;;0.18;98.75;94385.06;5095774;28;19931;-76
2021/11/29 00:58:04;;;;;;;;;;;;;;;0.39;98.38;94385.63;5077177;28;19924;-75
2021/11/29 01:00:29;;;;;;;;;;;;;;;0.43;97.10;94381.59;5095261;28;20406;-75
2021/11/29 01:02:55;;;;;;;;;;;;;;;0.22;97.93;94386.22;5095422;28;19927;-75
2021/11/29 01:05:21;;;;;;;;;;;;;;;0.45;97.31;94395.13;5094949;28;19932;-74
2021/11/29 01:07:46;;;;;;;;;;;;;;;0.52;96.65;94398.41;5095161;28;19953;-75
2021/11/29 01:10:14;;;;;;;;;;;;;;;0.40;96.38;94393.19;5094786;28;19924;-76
2021/11/29 01:12:41;;;;;;;;;;;;;;;0.26;97.47;94400.28;5094943;28;19928;-76
2021/11/29 01:15:08;;;;;;;;;;;;;;;0.23;97.61;94405.91;5094297;28;19931;-75
2021/11/29 01:17:34;;;;;;;;;;;;;;;0.32;98.06;94397.84;5098500;28;20319;-75
2021/11/29 01:20:01;;;;;;;;;;;;;;;0.65;97.26;94406.03;5077115;28;19924;-76
2021/11/29 01:22:27;;;;;;;;;;;;;;;0.26;97.08;94400.28;5095628;28;19932;-77
2021/11/29 01:24:52;;;;;;;;;;;;;;;0.32;97.85;94401.22;5077415;28;20036;-77
2021/11/29 01:27:20;;;;;;;;;;;;;;;0.12;97.76;94406.63;5095520;28;19924;-78
2021/11/29 01:29:46;;;;;;;;;;;;;;;0.06;97.94;94397.13;5095369;28;19924;-76
2021/11/29 01:32:12;;;;;;;;;;;;;;;0.03;98.21;94407.91;5095303;28;19924;-78
2021/11/29 01:34:39;;;;;;;;;;;;;;;0.07;98.35;94413.44;5095767;28;19924;-76
2021/11/29 01:37:05;;;;;;;;;;;;;;;0.09;98.78;94416.59;5096717;28;20023;-76
2021/11/29 01:39:33;;;;;;;;;;;;;;;0.12;98.79;94414.38;5095312;28;19964;-76
2021/11/29 01:41:58;;;;;;;;;;;;;;;0.11;98.86;94414.56;5099308;28;19955;-77
2021/11/29 01:44:24;;;;;;;;;;;;;;;0.12;99.06;94414.38;5081020;28;19953;-75
2021/11/29 01:46:51;;;;;;;;;;;;;;;0.12;98.24;94416.97;5081058;28;19939;-76
2021/11/29 01:49:16;;;;;;;;;;;;;;;0.24;97.69;94419.63;5096495;28;19965;-77
2021/11/29 01:51:42;;;;;;;;;;;;;;;0.30;97.65;94417.97;5097227;28;19924;-77
2021/11/29 01:54:08;;;;;;;;;;;;;;;0.38;96.21;94433.22;5097306;28;20383;-77
2021/11/29 01:56:33;;;;;;;;;;;;;;;0.32;96.23;94426.28;5095224;28;20320;-77
2021/11/29 01:58:59;;;;;;;;;;;;;;;0.37;95.77;94423.84;5094781;28;19928;-77
2021/11/29 02:01:25;;;;;;;;;;;;;;;0.41;95.83;94428.38;5095230;28;20383;-77
2021/11/29 02:03:57;;;;;;;;;;;;;;;0.45;95.46;94421.75;5095020;28;19970;-78
2021/11/29 02:06:22;;;;;;;;;;;;;;;0.42;95.37;94427.34;5096415;28;20006;-75
2021/11/29 02:08:50;;;;;;;;;;;;;;;0.35;95.58;94429.25;5094690;28;20011;-77
2021/11/29 02:11:15;;;;;;;;;;;;;;;0.34;95.88;94426.88;5077325;28;20023;-77
2021/11/29 02:13:41;;;;;;;;;;;;;;;0.25;96.46;94428.94;5095283;28;20015;-77
2021/11/29 02:16:07;;;;;;;;;;;;;;;0.28;96.68;94420.78;5094441;28;19931;-76
2021/11/29 02:18:33;;;;;;;;;;;;;;;0.27;96.68;94429.53;5094538;28;20335;-77
2021/11/29 02:21:04;;;;;;;;;;;;;;;0.17;96.87;94430.03;5094957;28;20027;-77
2021/11/29 02:23:29;;;;;;;;;;;;;;;0.18;97.07;94423.84;5094789;28;20392;-76
2021/11/29 02:25:55;;;;;;;;;;;;;;;0.10;95.57;94428.50;5093190;28;19975;-76
2021/11/29 02:28:21;;;;;;;;;;;;;;;0.13;96.01;94428.09;5094980;28;19986;-77
2021/11/29 02:30:46;;;;;;;;;;;;;;;0.11;96.21;94428.31;5094718;28;19924;-78
2021/11/29 02:33:12;;;;;;;;;;;;;;;0.08;95.72;94435.69;5094414;28;19924;-77
2021/11/29 02:35:37;;;;;;;;;;;;;;;0.10;95.72;94429.28;5095813;28;19924;-76
2021/11/29 02:38:05;;;;;;;;;;;;;;;0.10;96.67;94437.03;5096456;28;19924;-77
2021/11/29 02:40:31;;;;;;;;;;;;;;;0.12;95.17;94442.81;5095637;28;19935;-80
2021/11/29 02:42:56;;;;;;;;;;;;;;;0.22;94.17;94437.16;5094194;28;20354;-77
2021/11/29 02:45:22;;;;;;;;;;;;;;;0.36;93.56;94442.97;5093652;28;20007;-77
2021/11/29 02:47:47;;;;;;;;;;;;;;;0.43;94.48;94452.25;5093958;28;19924;-75
2021/11/29 02:50:12;;;;;;;;;;;;;;;0.39;94.38;94455.47;5094725;28;19924;-78
2021/11/29 02:52:40;;;;;;;;;;;;;;;0.38;94.99;94454.69;5095016;28;19949;-77
2021/11/29 02:55:10;;;;;;;;;;;;;;;0.37;95.21;94453.09;5092903;28;19932;-77
2021/11/29 02:57:38;;;;;;;;;;;;;;;0.33;95.20;94453.75;5093292;28;20022;-76
2021/11/29 03:00:04;;;;;;;;;;;;;;;0.36;95.62;94454.09;5094320;28;19924;-75
2021/11/29 03:02:32;;;;;;;;;;;;;;;0.41;95.02;94458.63;5077413;28;19928;-76
2021/11/29 03:04:58;;;;;;;;;;;;;;;0.38;95.08;94465.03;5092605;28;19924;-76
2021/11/29 03:07:25;;;;;;;;;;;;;;;0.35;95.24;94472.41;5074722;28;19924;-76
2021/11/29 03:09:51;;;;;;;;;;;;;;;0.43;96.26;94464.34;5086163;28;19931;-76
2021/11/29 03:12:17;;;;;;;;;;;;;;;0.35;96.50;94485.34;5076300;28;19924;-75
2021/11/29 03:14:46;;;;;;;;;;;;;;;0.26;97.43;94490.78;5092989;28;19924;-76
2021/11/29 03:17:12;;;;;;;;;;;;;;;0.21;98.00;94493.22;5092926;28;19925;-74
2021/11/29 03:19:38;;;;;;;;;;;;;;;0.18;98.47;94498.84;5074514;28;20015;-75
2021/11/29 03:22:04;;;;;;;;;;;;;;;0.09;99.09;94496.72;5093271;28;19931;-74
2021/11/29 03:24:30;;;;;;;;;;;;;;;0.07;99.47;94499.53;5076684;28;19924;-76
2021/11/29 03:26:55;;;;;;;;;;;;;;;0.02;99.63;94501.97;5093634;28;19924;-76
2021/11/29 03:29:23;;;;;;;;;;;;;;;-0.02;99.90;94508.53;5097094;28;19924;-76
2021/11/29 03:31:52;;;;;;;;;;;;;;;-0.04;99.45;94511.34;5095401;28;20121;-75
2021/11/29 03:34:19;;;;;;;;;;;;;;;-0.12;99.62;94505.66;5093512;28;20021;-75
2021/11/29 03:36:46;;;;;;;;;;;;;;;-0.05;99.56;94514.16;5092678;28;19924;-76
2021/11/29 03:39:13;;;;;;;;;;;;;;;-0.14;99.40;94521.38;5093669;28;19924;-76
2021/11/29 03:41:38;;;;;;;;;;;;;;;-0.09;98.67;94513.00;5098841;28;19978;-77
2021/11/29 03:44:04;;;;;;;;;;;;;;;-0.13;98.55;94529.91;5079839;28;19932;-77
2021/11/29 03:46:31;;;;;;;;;;;;;;;-0.08;98.46;94520.53;5094745;28;19928;-78
2021/11/29 03:48:57;;;;;;;;;;;;;;;0.02;98.45;94527.03;5077780;28;19928;-77
2021/11/29 03:51:22;;;;;;;;;;;;;;;0.03;98.24;94524.22;5093529;28;19924;-77
2021/11/29 03:53:47;;;;;;;;;;;;;;;0.09;97.72;94520.78;5093369;28;19924;-76
2021/11/29 03:56:16;;;;;;;;;;;;;;;-0.01;98.11;94525.63;5092203;28;20276;-75
2021/11/29 03:58:43;;;;;;;;;;;;;;;0.01;98.67;94533.97;5092497;28;19964;-76
2021/11/29 04:01:09;;;;;;;;;;;;;;;0.03;97.96;94534.56;5092606;28;19970;-75
2021/11/29 04:03:36;;;;;;;;;;;;;;;-0.01;96.04;94538.56;5092607;28;19928;-75
2021/11/29 04:06:01;;;;;;;;;;;;;;;-0.09;95.52;94544.00;5092322;28;20358;-75
2021/11/29 04:08:27;;;;;;;;;;;;;;;-0.22;94.92;94544.88;5092472;28;20017;-75
2021/11/29 04:10:53;;;;;;;;;;;;;;;-0.22;94.79;94549.25;5092515;28;20253;-75
2021/11/29 04:13:18;;;;;;;;;;;;;;;-0.21;95.02;94551.63;5074321;28;19932;-74
2021/11/29 04:15:46;;;;;;;;;;;;;;;-0.16;95.21;94554.38;5092493;28;19924;-75
2021/11/29 04:18:11;;;;;;;;;;;;;;;-0.20;95.83;94562.75;5093465;28;20319;-74
2021/11/29 04:20:38;;;;;;;;;;;;;;;-0.18;95.08;94555.59;5092628;28;19974;-75
2021/11/29 04:23:04;;;;;;;;;;;;;;;-0.28;94.96;94566.38;5092372;28;20697;-75
2021/11/29 04:25:38;;;;;;;;;;;;;;;-0.21;95.07;94561.19;5092270;28;19935;-75
2021/11/29 04:28:03;;;;;;;;;;;;;;;-0.21;93.96;94567.16;5092498;28;19931;-75
2021/11/29 04:30:29;;;;;;;;;;;;;;;-0.29;94.59;94563.00;5075745;28;19959;-77
2021/11/29 04:32:55;;;;;;;;;;;;;;;-0.23;94.53;94574.28;5093418;28;19977;-77
2021/11/29 04:35:20;;;;;;;;;;;;;;;-0.27;94.49;94584.28;5096186;28;19924;-78
2021/11/29 04:37:49;;;;;;;;;;;;;;;-0.25;94.41;94580.69;5098180;28;19947;-77
2021/11/29 04:40:15;;;;;;;;;;;;;;;-0.19;94.41;94583.22;5111641;28;20383;-76
2021/11/29 04:42:40;;;;;;;;;;;;;;;-0.23;94.40;94586.44;5104064;28;19924;-77
2021/11/29 04:45:06;;;;;;;;;;;;;;;-0.23;94.53;94594.97;5101415;28;20454;-76
2021/11/29 04:47:31;;;;;;;;;;;;;;;-0.39;94.45;94595.47;5095829;28;19924;-77
2021/11/29 04:49:57;;;;;;;;;;;;;;;-0.44;94.91;94593.50;5100448;28;19935;-77
2021/11/29 04:52:24;;;;;;;;;;;;;;;-0.45;94.94;94593.69;5084471;28;20387;-77
2021/11/29 04:54:51;;;;;;;;;;;;;;;-0.42;94.06;94607.00;5102289;28;19932;-76
2021/11/29 04:57:17;;;;;;;;;;;;;;;-0.31;94.21;94606.34;5100184;28;19924;-75
2021/11/29 04:59:42;;;;;;;;;;;;;;;-0.28;94.52;94607.72;5096854;28;19924;-75
2021/11/29 05:02:08;;;;;;;;;;;;;;;-0.43;94.20;94618.34;5095432;28;20384;-76
2021/11/29 05:04:33;;;;;;;;;;;;;;;-0.37;95.04;94609.75;5095465;28;19924;-75
2021/11/29 05:07:01;;;;;;;;;;;;;;;-0.28;94.48;94618.84;5094749;28;20426;-77
2021/11/29 05:09:26;;;;;;;;;;;;;;;-0.44;95.70;94618.53;5100048;28;19924;-77
2021/11/29 05:11:53;;;;;;;;;;;;;;;-0.20;94.61;94622.19;5101451;28;19971;-78
2021/11/29 05:14:19;;;;;;;;;;;;;;;-0.36;94.75;94621.69;5080946;28;19924;-77
2021/11/29 05:16:44;;;;;;;;;;;;;;;-0.31;95.25;94624.44;5094353;28;20015;-77
2021/11/29 05:19:12;;;;;;;;;;;;;;;-0.33;94.69;94626.41;5076323;28;20288;-75
2021/11/29 05:21:37;;;;;;;;;;;;;;;-0.37;94.56;94624.47;5076357;28;19931;-76
2021/11/29 05:24:03;;;;;;;;;;;;;;;-0.37;94.77;94635.59;5095270;28;19924;-75
2021/11/29 05:26:29;;;;;;;;;;;;;;;-0.43;94.88;94627.84;5095392;28;19930;-75
2021/11/29 05:28:57;;;;;;;;;;;;;;;-0.43;94.43;94636.44;5095681;28;19924;-75
2021/11/29 05:31:23;;;;;;;;;;;;;;;-0.45;94.06;94643.56;5094763;28;19993;-76
2021/11/29 05:33:48;;;;;;;;;;;;;;;-0.45;94.79;94651.31;5094733;28;20341;-75
2021/11/29 05:36:17;;;;;;;;;;;;;;;-0.41;94.60;94654.28;5094168;28;19924;-76
2021/11/29 05:38:45;;;;;;;;;;;;;;;-0.40;93.91;94658.47;5094605;28;20383;-75
2021/11/29 05:41:11;;;;;;;;;;;;;;;-0.38;94.14;94654.66;5095914;28;19930;-74
2021/11/29 05:43:36;;;;;;;;;;;;;;;-0.33;93.99;94652.25;5096802;28;20023;-75
2021/11/29 05:46:03;;;;;;;;;;;;;;;-0.22;93.64;94661.16;5094649;28;19924;-75
2021/11/29 05:48:29;;;;;;;;;;;;;;;-0.30;94.04;94663.97;5076026;28;20019;-75
2021/11/29 05:50:55;;;;;;;;;;;;;;;-0.29;94.01;94668.94;5076136;28;20383;-76
2021/11/29 05:53:21;;;;;;;;;;;;;;;-0.34;93.30;94673.91;5075865;28;19932;-74
2021/11/29 05:55:49;;;;;;;;;;;;;;;-0.37;94.00;94676.94;5094042;28;19924;-75
2021/11/29 05:58:17;;;;;;;;;;;;;;;-0.50;95.25;94689.09;5093860;28;19924;-75
2021/11/29 06:00:43;;;;;;;;;;;;;;;-0.50;94.08;94692.47;5075636;28;20411;-75
2021/11/29 06:03:10;;;;;;;;;;;;;;;-0.47;94.25;94699.03;5094071;28;19931;-77
2021/11/29 06:05:35;;;;;;;;;;;;;;;-0.41;93.66;94698.22;5093345;28;20009;-77
2021/11/29 06:08:01;;;;;;;;;;;;;;;-0.43;94.19;94708.75;5079534;28;20364;-76
2021/11/29 06:10:26;;;;;;;;;;;;;;;-0.39;93.32;94709.13;5094180;28;19947;-76
2021/11/29 06:12:51;;;;;;;;;;;;;;;-0.29;93.90;94723.19;5093857;28;20391;-77
2021/11/29 06:15:17;;;;;;;;;;;;;;;-0.19;93.15;94720.19;5093598;28;19977;-76
2021/11/29 06:17:45;;;;;;;;;;;;;;;-0.13;93.68;94713.41;5093542;28;20494;-76
2021/11/29 06:20:14;;;;;;;;;;;;;;;-0.15;92.71;94725.75;5093898;28;19924;-77
2021/11/29 06:22:40;;;;;;;;;;;;;;;-0.16;92.93;94729.31;5094017;28;19932;-76
2021/11/29 06:25:09;;;;;;;;;;;;;;;-0.02;92.60;94736.00;5093757;28;19942;-76
2021/11/29 06:27:34;;;;;;;;;;;;;;;-0.13;92.86;94732.28;5093898;28;19928;-77
2021/11/29 06:29:59;;;;;;;;;;;;;;;-0.05;91.37;94739.03;5082924;28;19934;-77
2021/11/29 06:32:25;;;;;;;;;;;;;;;-0.04;91.74;94748.34;5105190;28;19967;-75
2021/11/29 06:34:50;;;;;;;;;;;;;;;-0.06;91.93;94747.75;5115267;28;19936;-75
2021/11/29 06:37:20;;;;;;;;;;;;;;;-0.10;92.08;94759.53;5096495;28;19928;-75
2021/11/29 06:39:46;;;;;;;;;;;;;;;-0.03;91.86;94757.69;5102608;28;19924;-75
2021/11/29 06:42:12;;;;;;;;;;;;;;;-0.03;92.60;94761.06;5094502;28;19924;-74
2021/11/29 06:44:39;;;;;;;;;;;;;;;0.08;92.35;94764.81;5093324;28;19977;-74
2021/11/29 06:47:05;;;;;;;;;;;;;;;0.05;92.39;94778.13;5093230;28;19931;-76
2021/11/29 06:49:30;;;;;;;;;;;;;;;0.15;92.76;94777.69;5093058;28;19928;-75
2021/11/29 06:51:56;;;;;;;;;;;;;;;0.11;93.08;94777.34;5075183;28;19984;-75
2021/11/29 06:54:23;;;;;;;;;;;;;;;0.08;93.12;94782.91;5094449;28;19924;-74
2021/11/29 06:56:48;;;;;;;;;;;;;;;0.10;92.26;94791.22;5094878;28;19924;-75
2021/11/29 06:59:13;;;;;;;;;;;;;;;0.18;92.65;94792.81;5094460;28;20269;-75
2021/11/29 07:01:39;;;;;;;;;;;;;;;0.13;92.13;94795.22;5091509;28;19927;-78
2021/11/29 07:04:04;;;;;;;;;;;;;;;0.16;92.10;94803.38;5071104;28;19963;-78
2021/11/29 07:06:33;;;;;;;;;;;;;;;0.15;93.71;94798.38;5070615;28;19932;-78
2021/11/29 07:09:00;;;;;;;;;;;;;;;0.21;92.92;94798.34;5093383;28;19943;-77
2021/11/29 07:11:27;;;;;;;;;;;;;;;0.24;93.04;94805.69;5094429;28;19963;-78
2021/11/29 07:13:53;;;;;;;;;;;;;;;0.16;90.82;94805.94;5093464;28;19924;-78
2021/11/29 07:16:19;;;;;;;;;;;;;;;0.21;91.76;94803.53;5093700;28;19977;-77
2021/11/29 07:18:44;;;;;;;;;;;;;;;0.17;92.12;94817.09;5094426;28;20427;-77
2021/11/29 07:21:11;;;;;;;;;;;;;;;0.17;92.29;94817.09;5072898;28;20363;-74
2021/11/29 07:23:36;;;;;;;;;;;;;;;0.21;93.10;94824.22;5083194;28;20276;-75
2021/11/29 07:26:02;;;;;;;;;;;;;;;0.21;93.18;94826.78;5092494;28;20037;-76
2021/11/29 07:28:29;;;;;;;;;;;;;;;0.21;93.54;94836.34;5079094;28;19925;-74
2021/11/29 07:30:54;;;;;;;;;;;;;;;0.23;94.93;94836.94;5074770;28;19924;-75
2021/11/29 07:33:19;;;;;;;;;;;;;;;0.19;95.82;94846.09;5067892;28;19928;-75
2021/11/29 07:35:45;;;;;;;;;;;;;;;0.20;96.46;94845.91;5074564;28;19952;-75
2021/11/29 07:38:12;;;;;;;;;;;;;;;0.15;96.93;94853.47;5071238;28;19956;-75
2021/11/29 07:40:37;;;;;;;;;;;;;;;0.24;97.29;94856.63;5083513;28;19978;-75
2021/11/29 07:43:04;;;;;;;;;;;;;;;0.23;97.58;94852.47;5054309;28;19928;-75
2021/11/29 07:45:32;;;;;;;;;;;;;;;0.18;98.49;94860.03;5072805;28;20383;-76
2021/11/29 07:47:57;;;;;;;;;;;;;;;0.23;97.72;94863.59;5072034;28;19971;-76
2021/11/29 07:50:25;;;;;;;;;;;;;;;0.31;96.99;94869.53;5072621;28;19928;-75
2021/11/29 07:52:51;;;;;;;;;;;;;;;0.36;96.45;94873.09;5072240;28;19928;-75
2021/11/29 07:55:21;;;;;;;;;;;;;;;0.41;96.12;94872.47;5072298;28;20391;-76
2021/11/29 07:57:49;;;;;;;;;;;;;;;0.40;96.34;94876.88;5076162;28;19977;-75
2021/11/29 08:00:20;;;;;;;;;;;;;;;0.38;96.46;94875.50;5073232;28;19983;-75
2021/11/29 08:02:48;;;;;;;;;;;;;;;0.34;96.31;94885.44;5072803;28;20011;-75
2021/11/29 08:05:14;;;;;;;;;;;;;;;0.31;96.44;94882.47;5071663;28;19924;-75
2021/11/29 08:07:41;;;;;;;;;;;;;;;0.23;96.05;94880.91;5072538;28;19925;-76
2021/11/29 08:10:07;;;;;;;;;;;;;;;0.35;95.70;94884.44;5072116;28;20367;-76
2021/11/29 08:12:33;;;;;;;;;;;;;;;0.36;94.94;94885.25;5053948;28;20019;-77
2021/11/29 08:14:58;;;;;;;;;;;;;;;0.29;95.51;94892.22;5072005;28;20024;-76
2021/11/29 08:17:26;;;;;;;;;;;;;;;0.43;95.54;94893.75;5054042;28;19963;-76
2021/11/29 08:19:53;;;;;;;;;;;;;;;0.45;95.53;94902.13;5073072;28;20058;-75
2021/11/29 08:22:18;;;;;;;;;;;;;;;0.43;95.67;94904.09;5054169;28;19948;-75
2021/11/29 08:24:44;;;;;;;;;;;;;;;0.38;95.91;94906.53;5075791;28;20380;-76
2021/11/29 08:27:09;;;;;;;;;;;;;;;0.35;96.29;94907.72;5057677;28;19954;-76
2021/11/29 08:29:34;;;;;;;;;;;;;;;0.49;95.95;94916.25;5078436;28;19931;-75
2021/11/29 08:32:00;;;;;;;;;;;;;;;0.57;95.75;94921.19;5084742;28;20036;-75
2021/11/29 08:34:25;;;;;;;;;;;;;;;0.57;95.60;94928.16;5077084;28;20075;-75
2021/11/29 08:36:52;;;;;;;;;;;;;;;0.46;95.59;94929.59;5077782;28;19932;-75
2021/11/29 08:39:20;;;;;;;;;;;;;;;0.55;95.96;94930.16;5076002;28;19936;-76
2021/11/29 08:41:45;;;;;;;;;;;;;;;0.55;95.66;94928.38;5057495;28;19957;-74
2021/11/29 08:44:11;;;;;;;;;;;;;;;0.49;96.37;94937.75;5075805;28;20509;-75
2021/11/29 08:46:37;;;;;;;;;;;;;;;0.39;97.26;94939.16;5075518;28;19924;-74
2021/11/29 08:49:03;;;;;;;;;;;;;;;0.34;98.61;94946.75;5077147;28;19947;-74
2021/11/29 08:51:28;;;;;;;;;;;;;;;0.37;98.86;94948.91;5075320;28;20614;-74
2021/11/29 08:53:55;;;;;;;;;;;;;;;0.45;98.37;94959.84;5075525;28;19924;-74
2021/11/29 08:56:21;;;;;;;;;;;;;;;0.37;99.22;94962.63;5074946;28;20268;-74
2021/11/29 08:58:46;;;;;;;;;;;;;;;0.44;98.35;94968.59;5074567;28;20307;-76
2021/11/29 09:01:12;;;;;;;;;;;;;;;0.54;97.64;94963.00;5075190;28;20301;-76
2021/11/29 09:03:37;;;;;;;;;;;;;;;0.45;95.08;94975.34;5075084;28;19931;-74
2021/11/29 09:06:03;;;;;;;;;;;;;;;0.48;96.61;94979.31;5074911;28;19978;-74
2021/11/29 09:08:31;;;;;;;;;;;;;;;0.62;95.82;94985.25;5075751;28;20307;-74
2021/11/29 09:10:58;;;;;;;;;;;;;;;0.53;94.35;94990.66;5075138;28;19924;-74
2021/11/29 09:13:23;;;;;;;;;;;;;;;0.67;93.42;95000.97;5075237;28;19994;-73
2021/11/29 09:15:49;;;;;;;;;;;;;;;0.67;91.47;94999.19;5074751;28;20303;-73
2021/11/29 09:18:17;;;;;;;;;;;;;;;0.65;90.25;95001.19;5056910;28;19925;-74
2021/11/29 09:20:43;;;;;;;;;;;;;;;0.66;91.23;94992.41;5074739;28;19924;-75
2021/11/29 09:23:11;;;;;;;;;;;;;;;0.66;90.86;95007.16;5074776;28;20031;-76
2021/11/29 09:25:41;;;;;;;;;;;;;;;0.61;92.90;95010.34;5074965;28;19936;-75
2021/11/29 09:28:08;;;;;;;;;;;;;;;0.59;91.40;95011.53;5075320;28;20031;-74
2021/11/29 09:30:34;;;;;;;;;;;;;;;0.85;91.57;95026.19;5056766;28;19924;-75
2021/11/29 09:33:02;;;;;;;;;;;;;;;0.91;92.07;95022.78;5074749;28;20024;-75
2021/11/29 09:35:30;;;;;;;;;;;;;;;0.93;92.89;95028.59;5073977;28;19924;-75
2021/11/29 09:37:57;;;;;;;;;;;;;;;1.12;93.78;95030.28;5074508;28;19924;-73
2021/11/29 09:40:25;;;;;;;;;;;;;;;0.93;93.30;95028.59;5074429;28;19925;-73
2021/11/29 09:42:53;;;;;;;;;;;;;;;0.93;92.02;95026.78;5074094;28;19925;-74
2021/11/29 09:45:21;;;;;;;;;;;;;;;0.97;91.32;95024.56;5074055;28;19947;-75
2021/11/29 09:47:47;;;;;;;;;;;;;;;0.98;91.40;95026.97;5083708;28;19926;-74
2021/11/29 09:50:13;;;;;;;;;;;;;;;1.00;90.42;95027.53;5065941;28;19931;-74
2021/11/29 09:52:42;;;;;;;;;;;;;;;1.13;90.30;95028.50;5074286;28;19925;-74
2021/11/29 09:55:14;;;;;;;;;;;;;;;1.23;89.08;95031.44;5074171;28;20338;-74
2021/11/29 09:57:41;;;;;;;;;;;;;;;1.08;87.37;95026.53;5074015;28;19924;-75
2021/11/29 10:00:10;;;;;;;;;;;;;;;1.03;87.53;95039.31;5074492;28;19966;-74
2021/11/29 10:02:37;;;;;;;;;;;;;;;1.06;87.16;95041.47;5076978;28;20388;-75
2021/11/29 10:05:05;;;;;;;;;;;;;;;1.14;88.91;95041.25;5073376;28;19928;-75
2021/11/29 10:07:31;;;;;;;;;;;;;;;1.36;87.67;95046.94;5074490;28;19925;-75
2021/11/29 10:10:07;;;;;;;;;;;;;;;1.28;86.95;95047.16;5073235;28;19928;-75
2021/11/29 10:12:33;;;;;;;;;;;;;;;1.44;86.88;95048.47;5073498;28;19925;-75
2021/11/29 10:15:08;;;;;;;;;;;;;;;1.47;88.11;95048.09;5055236;28;19935;-75
2021/11/29 10:17:37;;;;;;;;;;;;;;;1.66;87.04;95064.50;5072906;28;19924;-74
2021/11/29 10:20:07;;;;;;;;;;;;;;;1.58;84.66;95062.97;5074551;28;20368;-74
2021/11/29 10:22:33;;;;;;;;;;;;;;;1.35;85.41;95067.88;5074126;28;19966;-75
2021/11/29 10:25:11;;;;;;;;;;;;;;;1.39;85.53;95067.22;5065249;28;19924;-74
2021/11/29 10:27:38;;;;;;;;;;;;;;;1.35;84.50;95073.06;5080582;28;19982;-73
2021/11/29 10:30:05;;;;;;;;;;;;;;;1.39;86.08;95079.41;5077534;28;19951;-72
2021/11/29 10:32:32;;;;;;;;;;;;;;;1.40;86.19;95073.22;5086168;28;19936;-73
2021/11/29 10:34:58;;;;;;;;;;;;;;;1.39;85.90;95071.63;5073468;28;19966;-74
2021/11/29 10:37:32;;;;;;;;;;;;;;;1.31;84.71;95073.47;5073420;28;19932;-73
2021/11/29 10:40:00;;;;;;;;;;;;;;;1.30;85.40;95078.84;5073298;28;20023;-75
2021/11/29 10:42:27;;;;;;;;;;;;;;;1.40;83.36;95081.81;5073633;28;19924;-75
2021/11/29 10:44:54;;;;;;;;;;;;;;;1.29;82.26;95080.66;5054764;28;19925;-76
2021/11/29 10:47:20;;;;;;;;;;;;;;;1.17;83.55;95092.63;5072269;28;19931;-75
2021/11/29 10:49:49;;;;;;;;;;;;;;;1.13;83.00;95095.81;5072606;28;20368;-75
2021/11/29 10:52:15;;;;;;;;;;;;;;;1.21;84.12;95093.81;5073173;28;19960;-75
2021/11/29 10:54:42;;;;;;;;;;;;;;;1.21;82.30;95108.56;5054938;28;19967;-74
2021/11/29 10:57:12;;;;;;;;;;;;;;;1.38;81.60;95098.53;5073286;28;19924;-74
2021/11/29 10:59:38;;;;;;;;;;;;;;;1.51;80.84;95112.25;5073308;28;19925;-76
2021/11/29 11:02:08;;;;;;;;;;;;;;;1.42;79.85;95105.69;5073166;28;20399;-73
2021/11/29 11:04:34;;;;;;;;;;;;;;;1.48;79.73;95115.25;5072825;28;19924;-75
2021/11/29 11:07:03;;;;;;;;;;;;;;;1.45;79.04;95120.03;5072713;28;19960;-74
2021/11/29 11:09:29;;;;;;;;;;;;;;;1.42;80.33;95120.47;5072800;28;19924;-74
2021/11/29 11:11:57;;;;;;;;;;;;;;;1.34;82.42;95118.09;5072984;28;19947;-75
2021/11/29 11:14:23;;;;;;;;;;;;;;;1.42;80.68;95118.66;5074360;28;19925;-73
2021/11/29 11:16:51;;;;;;;;;;;;;;;1.36;78.63;95126.47;5077658;28;20307;-74
2021/11/29 11:19:24;;;;;;;;;;;;;;;1.19;78.90;95136.47;5078195;28;20465;-73
2021/11/29 11:21:49;;;;;;;;;;;;;;;1.30;81.44;95128.06;5076080;28;20350;-74
2021/11/29 11:24:19;;;;;;;;;;;;;;;1.47;80.74;95136.19;5054244;28;20380;-74
2021/11/29 11:26:45;;;;;;;;;;;;;;;1.50;80.70;95136.56;5072417;28;19925;-74
2021/11/29 11:29:13;;;;;;;;;;;;;;;1.48;79.89;95130.78;5071990;28;19947;-75
2021/11/29 11:31:38;;;;;;;;;;;;;;;1.67;78.54;95144.69;5072279;28;20015;-75
2021/11/29 11:34:04;;;;;;;;;;;;;;;1.70;77.91;95146.06;5071857;28;20027;-74
2021/11/29 11:36:29;;;;;;;;;;;;;;;1.98;78.97;95151.69;5073123;28;19950;-74
2021/11/29 11:39:02;;;;;;;;;;;;;;;1.78;75.83;95151.81;5055368;28;19924;-75
2021/11/29 11:41:27;;;;;;;;;;;;;;;1.57;76.93;95150.31;5074561;28;19924;-76
2021/11/29 11:43:55;;;;;;;;;;;;;;;1.64;79.24;95149.47;5074415;28;19925;-74
2021/11/29 11:46:25;;;;;;;;;;;;;;;1.62;79.61;95152.28;5055544;28;20593;-75
2021/11/29 11:48:50;;;;;;;;;;;;;;;1.74;81.08;95155.03;5072066;28;19928;-74
2021/11/29 11:51:16;;;;;;;;;;;;;;;1.32;81.84;95151.97;5072329;28;20291;-75
2021/11/29 11:53:41;;;;;;;;;;;;;;;1.22;84.10;95152.38;5072181;28;19925;-74
2021/11/29 11:56:07;;;;;;;;;;;;;;;1.26;84.50;95147.59;5071624;28;20007;-74
2021/11/29 11:58:39;;;;;;;;;;;;;;;1.43;84.68;95147.97;5073753;28;19928;-74
2021/11/29 12:01:08;;;;;;;;;;;;;;;1.78;82.08;95153.63;5075785;28;19956;-74
2021/11/29 12:03:39;;;;;;;;;;;;;;;2.22;80.48;95159.75;5075514;28;20026;-74
2021/11/29 12:06:06;;;;;;;;;;;;;;;2.23;80.47;95156.16;5075654;28;19931;-74
2021/11/29 12:08:36;;;;;;;;;;;;;;;2.02;79.68;95163.25;5075506;28;19936;-74
2021/11/29 12:11:03;;;;;;;;;;;;;;;1.90;80.13;95159.72;5075245;28;19971;-74
2021/11/29 12:13:41;;;;;;;;;;;;;;;1.77;81.16;95162.38;5074767;28;19933;-75
2021/11/29 12:16:08;;;;;;;;;;;;;;;1.64;80.82;95165.81;5075050;28;19924;-74
2021/11/29 12:18:51;;;;;;;;;;;;;;;1.68;80.88;95171.41;5058774;28;19972;-74
2021/11/29 12:21:28;;;;;;;;;;;;;;;1.79;79.78;95160.38;5070757;28;20331;-75
2021/11/29 12:23:57;;;;;;;;;;;;;;;1.81;80.37;95166.94;5075814;28;19940;-74
2021/11/29 12:26:41;;;;;;;;;;;;;;;1.77;77.97;95170.16;5074826;28;19924;-74
2021/11/29 12:29:06;;;;;;;;;;;;;;;1.95;78.56;95172.09;5075378;28;19916;-73
2021/11/29 12:31:36;;;;;;;;;;;;;;;1.74;78.65;95176.56;5075571;28;19924;-74
2021/11/29 12:34:04;;;;;;;;;;;;;;;1.77;78.95;95181.31;5075225;28;20292;-74
2021/11/29 12:36:44;;;;;;;;;;;;;;;1.75;81.24;95185.91;5074755;28;19925;-74
2021/11/29 12:39:11;;;;;;;;;;;;;;;1.77;80.17;95186.50;5073742;28;20392;-75
2021/11/29 12:41:37;;;;;;;;;;;;;;;1.65;79.70;95188.16;5057035;28;20303;-74
2021/11/29 12:44:03;;;;;;;;;;;;;;;1.63;82.65;95187.56;5056987;28;19935;-75
2021/11/29 12:46:29;;;;;;;;;;;;;;;1.41;84.63;95191.44;5075231;28;19928;-74
2021/11/29 12:48:56;;;;;;;;;;;;;;;1.28;85.47;95187.84;5074668;28;19940;-75
2021/11/29 12:51:40;;;;;;;;;;;;;;;1.30;87.01;95191.03;5075187;28;19928;-75